Time;durP1;ratioP1;P1;durP2;ratioP2;P2;SDS_P1;SDS_P2;PMS_P1;PMS_P2;Temp;Humidity;BMP_temperature;BMP_pressure;BME280_temperature;BME280_humidity;BME280_pressure;Samples;Min_cycle;Max_cycle;Signal;HPM_P1;HPM_P2
2022/01/23 00:01:46;;;;;;;1999.90;999.90;;;5.40;99.90;;;;;;5051691;28;20458;-69
2022/01/23 00:04:13;;;;;;;1999.90;999.90;;;5.40;99.90;;;;;;5051562;28;20829;-70
2022/01/23 00:06:40;;;;;;;1999.90;999.90;;;5.40;99.90;;;;;;5051777;28;20475;-69
2022/01/23 00:09:08;;;;;;;1999.90;999.90;;;5.40;99.90;;;;;;5050987;28;20497;-69
2022/01/23 00:11:40;;;;;;;1999.90;999.90;;;5.40;99.90;;;;;;5050186;28;20500;-70
2022/01/23 00:17:17;;;;;;;1999.90;999.90;;;5.40;99.90;;;;;;5026010;28;20503;-69
2022/01/23 00:19:44;;;;;;;1999.90;999.90;;;5.40;99.90;;;;;;5050390;28;20461;-69
2022/01/23 00:22:12;;;;;;;1999.90;999.90;;;5.40;99.90;;;;;;5050636;28;20493;-69
2022/01/23 00:30:22;;;;;;;1999.90;999.90;;;5.40;99.90;;;;;;5039929;28;20465;-69
2022/01/23 00:32:49;;;;;;;1999.90;999.90;;;5.40;99.90;;;;;;5049527;28;20458;-70
2022/01/23 00:35:16;;;;;;;1999.90;999.90;;;5.40;99.90;;;;;;5050323;28;21030;-69
2022/01/23 00:37:43;;;;;;;1999.90;999.90;;;5.30;99.90;;;;;;5051177;28;20496;-69
2022/01/23 00:40:12;;;;;;;1999.90;999.90;;;5.40;99.90;;;;;;5051809;28;20473;-69
2022/01/23 00:42:40;;;;;;;1999.90;999.90;;;5.40;99.90;;;;;;5051979;28;20481;-69
2022/01/23 00:45:25;;;;;;;1999.90;999.90;;;5.40;99.90;;;;;;5051822;28;20446;-69
2022/01/23 00:47:54;;;;;;;1999.90;999.90;;;5.40;99.90;;;;;;5052190;28;20455;-69
2022/01/23 00:50:21;;;;;;;1999.90;999.90;;;5.30;99.90;;;;;;5051280;28;20457;-67
2022/01/23 00:52:47;;;;;;;1999.90;999.90;;;5.30;99.90;;;;;;5051745;28;20447;-67
2022/01/23 00:55:15;;;;;;;1999.90;999.90;;;5.30;99.90;;;;;;5051659;28;20500;-67
2022/01/23 00:57:42;;;;;;;1999.90;999.90;;;5.20;99.90;;;;;;5050836;28;20478;-67
2022/01/23 01:00:10;;;;;;;1999.90;999.90;;;5.20;99.90;;;;;;5049870;28;20450;-68
2022/01/23 01:02:37;;;;;;;1999.90;999.90;;;5.20;99.90;;;;;;5049778;28;20480;-67
2022/01/23 01:05:04;;;;;;;1999.90;999.90;;;5.30;99.90;;;;;;5048809;28;20453;-67
2022/01/23 01:07:31;;;;;;;1999.90;999.90;;;5.30;99.90;;;;;;5030505;28;20467;-67
2022/01/23 01:10:01;;;;;;;1999.90;999.90;;;5.30;99.90;;;;;;5034977;28;20693;-67
2022/01/23 01:12:37;;;;;;;1999.90;999.90;;;5.30;99.90;;;;;;5050901;28;20447;-67
2022/01/23 01:15:27;;;;;;;1999.90;999.90;;;5.20;99.90;;;;;;5052467;28;20434;-69
2022/01/23 01:31:49;;;;;;;1999.90;999.90;;;5.30;99.90;;;;;;5026118;28;20461;-67
2022/01/23 01:34:21;;;;;;;1999.90;999.90;;;5.30;99.90;;;;;;5051226;28;20442;-68
2022/01/23 01:36:50;;;;;;;1999.90;999.90;;;5.30;99.90;;;;;;5051401;28;20477;-67
2022/01/23 01:39:18;;;;;;;1999.90;999.90;;;5.30;99.90;;;;;;5051668;28;20451;-67
2022/01/23 01:41:45;;;;;;;1999.90;999.90;;;5.30;99.90;;;;;;5050979;28;20459;-69
2022/01/23 01:44:15;;;;;;;1999.90;999.90;;;5.30;99.90;;;;;;5051587;28;20951;-68
2022/01/23 01:46:42;;;;;;;1999.90;999.90;;;5.30;99.90;;;;;;5051592;28;20470;-67
2022/01/23 01:49:09;;;;;;;1999.90;999.90;;;5.40;99.90;;;;;;5051844;28;20894;-68
2022/01/23 01:51:36;;;;;;;1999.90;999.90;;;5.40;99.90;;;;;;5051835;28;20812;-67
2022/01/23 01:54:10;;;;;;;1999.90;999.90;;;5.30;99.90;;;;;;5052680;28;20469;-68
2022/01/23 01:56:47;;;;;;;1999.90;999.90;;;5.30;99.90;;;;;;5051780;28;20470;-67
2022/01/23 01:59:32;;;;;;;1999.90;999.90;;;5.30;99.90;;;;;;5052103;28;20454;-69
2022/01/23 02:10:09;;;;;;;1999.90;999.90;;;5.20;99.90;;;;;;5052102;28;20460;-69
2022/01/23 02:13:01;;;;;;;1999.90;999.90;;;5.20;99.90;;;;;;5053565;28;20434;-67
2022/01/23 02:15:47;;;;;;;1999.90;999.90;;;5.20;99.90;;;;;;5054327;28;20485;-68
2022/01/23 02:18:25;;;;;;;1999.90;999.90;;;5.30;99.90;;;;;;5056682;28;20512;-68
2022/01/23 02:24:05;;;;;;;1999.90;999.90;;;5.30;99.90;;;;;;5055666;28;20469;-69
2022/01/23 02:51:32;;;;;;;1999.90;999.90;;;5.30;99.90;;;;;;5054524;28;20406;-69
2022/01/23 02:54:26;;;;;;;1999.90;999.90;;;5.20;99.90;;;;;;5054587;28;20449;-69
2022/01/23 02:56:56;;;;;;;1999.90;999.90;;;5.30;99.90;;;;;;5054541;28;20461;-69
2022/01/23 02:59:25;;;;;;;1999.90;999.90;;;5.30;99.90;;;;;;5054116;28;20455;-69
2022/01/23 03:02:12;;;;;;;1999.90;999.90;;;5.30;99.90;;;;;;5054353;28;20446;-69
2022/01/23 03:04:47;;;;;;;1999.90;999.90;;;5.20;99.90;;;;;;5034887;28;20483;-69
2022/01/23 03:07:30;;;;;;;1999.90;999.90;;;5.20;99.90;;;;;;5055178;28;20509;-69
2022/01/23 03:10:03;;;;;;;1999.90;999.90;;;5.20;99.90;;;;;;5054164;28;20456;-69
2022/01/23 03:15:18;;;;;;;1999.90;999.90;;;5.20;99.90;;;;;;5053767;28;20446;-69
2022/01/23 03:26:20;;;;;;;1999.90;999.90;;;5.10;99.90;;;;;;5054474;28;20465;-69
2022/01/23 03:31:43;;;;;;;1999.90;999.90;;;5.10;99.90;;;;;;5028707;28;20544;-69
2022/01/23 03:34:10;;;;;;;1999.90;999.90;;;5.10;99.90;;;;;;5054867;28;20470;-69
2022/01/23 03:36:38;;;;;;;1999.90;999.90;;;5.10;99.90;;;;;;5054689;28;21027;-69
2022/01/23 03:39:07;;;;;;;1999.90;999.90;;;5.10;99.90;;;;;;5053897;28;20488;-69
2022/01/23 03:41:36;;;;;;;1999.90;999.90;;;5.10;99.90;;;;;;5053592;28;20557;-69
2022/01/23 03:44:05;;;;;;;1999.90;999.90;;;5.10;99.90;;;;;;5054280;28;20527;-69
2022/01/23 03:46:47;;;;;;;1999.90;999.90;;;5.00;99.90;;;;;;5054878;28;20466;-69
2022/01/23 03:49:31;;;;;;;1999.90;999.90;;;5.00;99.90;;;;;;5054310;28;20541;-69
2022/01/23 03:51:59;;;;;;;1999.90;999.90;;;5.00;99.90;;;;;;5055107;28;20446;-69
2022/01/23 03:54:26;;;;;;;1999.90;999.90;;;5.00;99.90;;;;;;5054947;28;20439;-69
2022/01/23 03:56:55;;;;;;;1999.90;999.90;;;5.00;99.90;;;;;;5055251;28;20472;-69
2022/01/23 03:59:22;;;;;;;1999.90;999.90;;;5.00;99.90;;;;;;5054641;28;20512;-69
2022/01/23 04:01:48;;;;;;;1999.90;999.90;;;5.10;99.90;;;;;;5053424;28;20454;-69
2022/01/23 04:04:27;;;;;;;1999.90;999.90;;;5.10;99.90;;;;;;5053636;28;20474;-69
2022/01/23 04:06:53;;;;;;;1999.90;999.90;;;5.10;99.90;;;;;;5053042;28;20505;-69
2022/01/23 04:09:20;;;;;;;1999.90;999.90;;;5.10;99.90;;;;;;5052413;28;20450;-69
2022/01/23 04:11:48;;;;;;;1999.90;999.90;;;5.10;99.90;;;;;;5052594;28;20938;-68
2022/01/23 04:14:18;;;;;;;1999.90;999.90;;;5.10;99.90;;;;;;5052583;28;20818;-69
2022/01/23 04:17:07;;;;;;;1999.90;999.90;;;5.00;99.90;;;;;;5051085;28;20466;-69
2022/01/23 04:19:44;;;;;;;1999.90;999.90;;;5.00;99.90;;;;;;5050969;28;20446;-69
2022/01/23 04:33:31;;;;;;;1999.90;999.90;;;5.00;99.90;;;;;;5053257;28;20430;-69
2022/01/23 05:01:03;;;;;;;1999.90;999.90;;;5.10;99.90;;;;;;5051848;28;20855;-69
2022/01/23 05:06:24;;;;;;;1999.90;999.90;;;5.00;99.90;;;;;;5032208;28;20461;-69
2022/01/23 05:08:52;;;;;;;1999.90;999.90;;;5.00;99.90;;;;;;5032438;28;20457;-69
2022/01/23 05:11:20;;;;;;;1999.90;999.90;;;4.90;99.90;;;;;;5052097;28;20512;-69
2022/01/23 05:13:47;;;;;;;1999.90;999.90;;;4.90;99.90;;;;;;5052641;28;20443;-70
2022/01/23 05:16:14;;;;;;;1999.90;999.90;;;4.90;99.90;;;;;;5051710;28;20470;-69
2022/01/23 05:18:42;;;;;;;1999.90;999.90;;;4.90;99.90;;;;;;5053176;28;20961;-69
2022/01/23 05:21:30;;;;;;;1999.90;999.90;;;4.90;99.90;;;;;;5052329;28;20454;-69
2022/01/23 05:23:57;;;;;;;1999.90;999.90;;;4.90;99.90;;;;;;5052306;28;20564;-70
2022/01/23 05:26:24;;;;;;;1999.90;999.90;;;4.80;99.90;;;;;;5051551;28;21006;-69
2022/01/23 05:28:50;;;;;;;1999.90;999.90;;;4.80;99.90;;;;;;5053030;28;20446;-69
2022/01/23 05:31:17;;;;;;;1999.90;999.90;;;4.90;99.90;;;;;;5051647;28;21028;-69
2022/01/23 05:33:45;;;;;;;1999.90;999.90;;;4.90;99.90;;;;;;5052025;28;20443;-69
2022/01/23 05:36:12;;;;;;;1999.90;999.90;;;4.90;99.90;;;;;;5051556;28;20470;-70
2022/01/23 05:38:38;;;;;;;1999.90;999.90;;;4.90;99.90;;;;;;5052178;28;20446;-69
2022/01/23 05:41:05;;;;;;;1999.90;999.90;;;4.90;99.90;;;;;;5051980;28;20496;-69
2022/01/23 05:43:32;;;;;;;1999.90;999.90;;;4.90;99.90;;;;;;5051943;28;20481;-69
2022/01/23 05:45:58;;;;;;;1999.90;999.90;;;4.90;99.90;;;;;;5050799;28;20466;-69
2022/01/23 05:48:25;;;;;;;1999.90;999.90;;;5.00;99.90;;;;;;5051812;28;20969;-70
2022/01/23 05:50:53;;;;;;;1999.90;999.90;;;5.00;99.90;;;;;;5053931;28;20446;-68
2022/01/23 05:53:20;;;;;;;1999.90;999.90;;;5.00;99.90;;;;;;5055882;28;20825;-69
2022/01/23 05:55:46;;;;;;;1999.90;999.90;;;4.90;99.90;;;;;;5055217;28;20985;-69
2022/01/23 05:58:13;;;;;;;1999.90;999.90;;;4.90;99.90;;;;;;5055099;28;20877;-69
2022/01/23 06:00:40;;;;;;;1999.90;999.90;;;5.00;99.90;;;;;;5055678;28;20446;-70
2022/01/23 06:03:06;;;;;;;1999.90;999.90;;;5.00;99.90;;;;;;5055616;28;20496;-69
2022/01/23 06:05:33;;;;;;;1999.90;999.90;;;5.00;99.90;;;;;;5056411;28;20499;-69
2022/01/23 06:08:01;;;;;;;1999.90;999.90;;;5.10;99.90;;;;;;5056307;28;20477;-69
2022/01/23 06:10:35;;;;;;;1999.90;999.90;;;5.10;99.90;;;;;;5056185;28;20434;-69
2022/01/23 06:13:02;;;;;;;1999.90;999.90;;;5.10;99.90;;;;;;5056232;28;20450;-70
2022/01/23 06:15:29;;;;;;;1999.90;999.90;;;5.10;99.90;;;;;;5056164;28;20491;-69
2022/01/23 06:17:56;;;;;;;1999.90;999.90;;;5.10;99.90;;;;;;5055666;28;20941;-69
2022/01/23 06:20:23;;;;;;;1999.90;999.90;;;5.00;99.90;;;;;;5054944;28;20504;-71
2022/01/23 06:22:50;;;;;;;1999.90;999.90;;;5.00;99.90;;;;;;5054790;28;20869;-69
2022/01/23 06:25:19;;;;;;;1999.90;999.90;;;4.90;99.90;;;;;;5055193;28;20535;-70
2022/01/23 06:27:45;;;;;;;1999.90;999.90;;;4.90;99.90;;;;;;5055150;28;20470;-69
2022/01/23 06:30:12;;;;;;;1999.90;999.90;;;4.80;99.90;;;;;;5056569;28;20512;-69
2022/01/23 06:32:39;;;;;;;1999.90;999.90;;;4.80;99.90;;;;;;5055903;28;20470;-69
2022/01/23 06:35:06;;;;;;;1999.90;999.90;;;4.80;99.90;;;;;;5055613;28;20935;-69
2022/01/23 06:37:33;;;;;;;1999.90;999.90;;;4.80;99.90;;;;;;5054982;28;20500;-69
2022/01/23 06:40:00;;;;;;;1999.90;999.90;;;4.80;99.90;;;;;;5054662;28;21008;-67
2022/01/23 06:42:28;;;;;;;1999.90;999.90;;;4.80;99.90;;;;;;5054811;28;20454;-69
2022/01/23 06:44:54;;;;;;;1999.90;999.90;;;4.80;99.90;;;;;;5054985;28;20474;-69
2022/01/23 06:47:21;;;;;;;1999.90;999.90;;;4.90;99.90;;;;;;5054333;28;20531;-69
2022/01/23 06:49:48;;;;;;;1999.90;999.90;;;5.00;99.90;;;;;;5054672;28;20470;-69
2022/01/23 06:52:14;;;;;;;1999.90;999.90;;;5.00;99.90;;;;;;5054360;28;20459;-69
2022/01/23 06:54:41;;;;;;;1999.90;999.90;;;5.00;99.90;;;;;;5055168;28;20872;-69
2022/01/23 06:57:08;;;;;;;1999.90;999.90;;;5.10;99.90;;;;;;5054396;28;20474;-69
2022/01/23 06:59:36;;;;;;;1999.90;999.90;;;5.10;99.90;;;;;;5054294;28;20456;-69
2022/01/23 07:02:04;;;;;;;1999.90;999.90;;;5.10;99.90;;;;;;5054500;28;20454;-69
2022/01/23 07:04:31;;;;;;;1999.90;999.90;;;5.10;99.90;;;;;;5054548;28;20474;-70
2022/01/23 07:06:58;;;;;;;1999.90;999.90;;;5.20;99.90;;;;;;5054122;28;20466;-69
2022/01/23 07:09:25;;;;;;;1999.90;999.90;;;5.10;99.90;;;;;;5054155;28;20500;-69
2022/01/23 07:11:51;;;;;;;1999.90;999.90;;;5.10;99.90;;;;;;5053848;28;20492;-69
2022/01/23 07:14:18;;;;;;;1999.90;999.90;;;5.10;99.90;;;;;;5054558;28;20450;-69
2022/01/23 07:16:46;;;;;;;1999.90;999.90;;;5.10;99.90;;;;;;5054588;28;21040;-69
2022/01/23 07:19:13;;;;;;;1999.90;999.90;;;5.10;99.90;;;;;;5054504;28;20492;-69
2022/01/23 07:21:40;;;;;;;1999.90;999.90;;;5.20;99.90;;;;;;5052981;28;20500;-70
2022/01/23 07:24:07;;;;;;;1999.90;999.90;;;5.20;99.90;;;;;;5053976;28;20532;-69
2022/01/23 07:26:35;;;;;;;1999.90;999.90;;;5.20;99.90;;;;;;5054501;28;20466;-69
2022/01/23 07:29:03;;;;;;;1999.90;999.90;;;5.20;99.90;;;;;;5053208;28;20459;-69
2022/01/23 07:34:15;;;;;;;1999.90;999.90;;;5.10;99.90;;;;;;5053840;28;20429;-69
2022/01/23 07:36:42;;;;;;;1999.90;999.90;;;5.20;99.90;;;;;;5053769;28;20512;-68
2022/01/23 07:39:08;;;;;;;1999.90;999.90;;;5.10;99.90;;;;;;5054864;28;20454;-69
2022/01/23 07:41:35;;;;;;;1999.90;999.90;;;5.20;99.90;;;;;;5054431;28;20446;-69
2022/01/23 07:44:02;;;;;;;1999.90;999.90;;;5.20;99.90;;;;;;5052468;28;20539;-69
2022/01/23 07:46:29;;;;;;;1999.90;999.90;;;5.20;99.90;;;;;;5055928;28;20485;-69
2022/01/23 07:48:56;;;;;;;1999.90;999.90;;;5.20;99.90;;;;;;5054256;28;20515;-71
2022/01/23 07:51:24;;;;;;;1999.90;999.90;;;5.20;99.90;;;;;;5054553;28;20521;-69
2022/01/23 07:53:51;;;;;;;1999.90;999.90;;;5.30;99.90;;;;;;5054356;28;20524;-69
2022/01/23 07:56:17;;;;;;;1999.90;999.90;;;5.30;99.90;;;;;;5054257;28;20512;-69
2022/01/23 07:58:44;;;;;;;1999.90;999.90;;;5.30;99.90;;;;;;5054600;28;20450;-69
2022/01/23 08:01:11;;;;;;;1999.90;999.90;;;5.30;99.90;;;;;;5054708;28;20509;-71
2022/01/23 08:03:38;;;;;;;1999.90;999.90;;;5.40;99.90;;;;;;5054294;28;20504;-69
2022/01/23 08:06:05;;;;;;;1999.90;999.90;;;5.40;99.90;;;;;;5054195;28;20520;-69
2022/01/23 08:08:34;;;;;;;1999.90;999.90;;;5.40;99.90;;;;;;5054264;28;20446;-69
2022/01/23 08:11:00;;;;;;;1999.90;999.90;;;5.40;99.90;;;;;;5053696;28;20447;-69
2022/01/23 08:13:27;;;;;;;1999.90;999.90;;;5.40;99.90;;;;;;5054417;28;20454;-69
2022/01/23 08:15:54;;;;;;;1999.90;999.90;;;5.50;99.90;;;;;;5054621;28;20465;-70
2022/01/23 08:18:21;;;;;;;1999.90;999.90;;;5.50;99.90;;;;;;5053061;28;20438;-69
2022/01/23 08:20:47;;;;;;;1999.90;999.90;;;5.50;99.90;;;;;;5053782;28;20442;-69
2022/01/23 08:23:14;;;;;;;1999.90;999.90;;;5.60;99.90;;;;;;5053792;28;20950;-70
2022/01/23 08:25:42;;;;;;;1999.90;999.90;;;5.70;99.90;;;;;;5053829;28;20479;-69
2022/01/23 08:28:09;;;;;;;1999.90;999.90;;;5.70;99.90;;;;;;5055655;28;20476;-70
2022/01/23 08:30:36;;;;;;;1999.90;999.90;;;5.70;99.90;;;;;;5054240;28;20512;-69
2022/01/23 08:33:03;;;;;;;1999.90;999.90;;;5.80;99.90;;;;;;5053815;28;20446;-69
2022/01/23 08:35:30;;;;;;;1999.90;999.90;;;5.80;99.90;;;;;;5053607;28;20528;-70
2022/01/23 08:37:57;;;;;;;1999.90;999.90;;;5.90;99.90;;;;;;5053791;28;20450;-69
2022/01/23 08:40:45;;;;;;;1999.90;999.90;;;5.90;99.90;;;;;;5055002;28;20504;-71
2022/01/23 08:43:12;;;;;;;1999.90;999.90;;;5.90;99.90;;;;;;5054575;28;20942;-69
2022/01/23 08:45:38;;;;;;;1999.90;999.90;;;6.00;99.90;;;;;;5054605;28;21079;-69
2022/01/23 08:48:06;;;;;;;1999.90;999.90;;;6.00;99.90;;;;;;5052677;28;20504;-69
2022/01/23 08:50:32;;;;;;;1999.90;999.90;;;6.00;99.90;;;;;;5053749;28;20450;-69
2022/01/23 08:52:59;;;;;;;1999.90;999.90;;;6.00;99.90;;;;;;5054004;28;20450;-69
2022/01/23 08:55:26;;;;;;;1999.90;999.90;;;5.90;99.90;;;;;;5053665;28;20442;-69
2022/01/23 08:57:52;;;;;;;1999.90;999.90;;;6.00;99.90;;;;;;5053203;28;20496;-69
2022/01/23 09:00:21;;;;;;;1999.90;999.90;;;5.90;99.90;;;;;;5052309;28;20441;-67
2022/01/23 09:02:47;;;;;;;1999.90;999.90;;;6.00;99.90;;;;;;5051459;28;20954;-69
2022/01/23 09:05:14;;;;;;;1999.90;999.90;;;6.00;99.90;;;;;;5051767;28;21067;-70
2022/01/23 09:07:41;;;;;;;1999.90;999.90;;;6.00;99.90;;;;;;5052252;28;20470;-69
2022/01/23 09:10:09;;;;;;;1999.90;999.90;;;5.90;99.90;;;;;;5051846;28;20457;-69
2022/01/23 09:12:54;;;;;;;1999.90;999.90;;;6.00;99.90;;;;;;5052868;28;21038;-70
2022/01/23 09:15:22;;;;;;;1999.90;999.90;;;6.00;99.90;;;;;;5053629;28;20823;-70
2022/01/23 09:17:49;;;;;;;1999.90;999.90;;;6.10;99.90;;;;;;5054440;28;20470;-70
2022/01/23 09:20:16;;;;;;;1999.90;999.90;;;6.10;99.90;;;;;;5051102;28;20504;-72
2022/01/23 09:22:42;;;;;;;1999.90;999.90;;;6.10;99.90;;;;;;5051846;28;20519;-73
2022/01/23 09:25:09;;;;;;;1999.90;999.90;;;6.10;99.90;;;;;;5052151;28;20473;-72
2022/01/23 09:27:38;;;;;;;1999.90;999.90;;;6.20;99.90;;;;;;5055883;28;20470;-71
2022/01/23 09:30:16;;;;;;;1999.90;999.90;;;6.10;99.90;;;;;;5055531;28;20498;-74
2022/01/23 09:32:44;;;;;;;1999.90;999.90;;;6.10;99.90;;;;;;5055678;28;20438;-71
2022/01/23 09:35:12;;;;;;;1999.90;999.90;;;6.20;99.90;;;;;;5035876;28;20451;-72
2022/01/23 09:37:38;;;;;;;1999.90;999.90;;;6.20;99.90;;;;;;5035927;28;20516;-72
2022/01/23 09:40:06;;;;;;;1999.90;999.90;;;6.20;99.90;;;;;;5035277;28;20462;-72
2022/01/23 09:42:35;;;;;;;1999.90;999.90;;;6.20;99.90;;;;;;5035519;28;20446;-72
2022/01/23 09:45:05;;;;;;;1999.90;999.90;;;6.30;99.90;;;;;;5035149;28;20537;-74
2022/01/23 09:47:33;;;;;;;1999.90;999.90;;;6.40;99.90;;;;;;5044207;28;20478;-72
2022/01/23 09:50:03;;;;;;;1999.90;999.90;;;6.50;99.90;;;;;;5054747;28;20442;-70
2022/01/23 09:52:34;;;;;;;1999.90;999.90;;;6.40;99.90;;;;;;5055459;28;20450;-73
2022/01/23 09:55:07;;;;;;;1999.90;999.90;;;6.40;99.90;;;;;;5055600;28;20434;-73
2022/01/23 09:57:37;;;;;;;1999.90;999.90;;;6.50;99.90;;;;;;5055446;28;20473;-72
2022/01/23 10:00:07;;;;;;;1999.90;999.90;;;6.60;99.90;;;;;;5054887;28;20799;-74
2022/01/23 10:02:34;;;;;;;1999.90;999.90;;;6.60;99.90;;;;;;5055118;28;20439;-73
2022/01/23 10:05:03;;;;;;;1999.90;999.90;;;6.60;99.90;;;;;;5055166;28;20535;-72
2022/01/23 10:07:30;;;;;;;1999.90;999.90;;;6.60;99.90;;;;;;5055007;28;20520;-73
2022/01/23 10:10:09;;;;;;;1999.90;999.90;;;6.60;99.90;;;;;;5055256;28;20797;-72
2022/01/23 10:12:38;;;;;;;1999.90;999.90;;;6.70;99.90;;;;;;5054983;28;20850;-72
2022/01/23 10:15:06;;;;;;;1999.90;999.90;;;6.70;99.90;;;;;;5055027;28;20970;-73
2022/01/23 10:17:32;;;;;;;1999.90;999.90;;;6.80;99.90;;;;;;5054738;28;20516;-72
2022/01/23 10:19:59;;;;;;;1999.90;999.90;;;6.90;99.90;;;;;;5054730;28;20472;-73
2022/01/23 10:22:29;;;;;;;1999.90;999.90;;;6.80;99.90;;;;;;5054840;28;20992;-72
2022/01/23 10:25:05;;;;;;;1999.90;999.90;;;6.80;99.90;;;;;;5054872;28;20499;-73
2022/01/23 10:27:56;;;;;;;1999.90;999.90;;;6.80;99.90;;;;;;5054184;28;20528;-72
2022/01/23 10:30:24;;;;;;;1999.90;999.90;;;6.60;99.90;;;;;;5053872;28;20458;-72
2022/01/23 10:33:01;;;;;;;1999.90;999.90;;;6.60;99.90;;;;;;5054505;28;20446;-72
2022/01/23 10:35:28;;;;;;;1999.90;999.90;;;6.60;99.90;;;;;;5054435;28;20495;-72
2022/01/23 10:37:56;;;;;;;1999.90;999.90;;;6.60;99.90;;;;;;5054020;28;20442;-73
2022/01/23 10:40:33;;;;;;;1999.90;999.90;;;6.60;99.90;;;;;;5053775;28;20499;-74
2022/01/23 10:48:45;;;;;;;1999.90;999.90;;;6.80;99.90;;;;;;5054431;28;20473;-74
2022/01/23 10:51:26;;;;;;;1999.90;999.90;;;6.80;99.90;;;;;;5053910;28;20485;-72
2022/01/23 10:53:59;;;;;;;1999.90;999.90;;;6.90;99.90;;;;;;5054200;28;20850;-73
2022/01/23 10:56:27;;;;;;;1999.90;999.90;;;7.00;99.90;;;;;;5054146;28;20520;-73
2022/01/23 10:58:58;;;;;;;1999.90;999.90;;;7.00;99.90;;;;;;5053377;28;20442;-73
2022/01/23 11:01:25;;;;;;;1999.90;999.90;;;7.00;99.90;;;;;;5053077;28;20446;-72
2022/01/23 11:04:07;;;;;;;1999.90;999.90;;;7.10;99.90;;;;;;5053666;28;20450;-73
2022/01/23 11:06:50;;;;;;;1999.90;999.90;;;7.10;99.90;;;;;;5054216;28;20493;-74
2022/01/23 11:09:18;;;;;;;1999.90;999.90;;;7.10;99.90;;;;;;5054228;28;20504;-72
2022/01/23 11:11:47;;;;;;;1999.90;999.90;;;7.10;99.90;;;;;;5053627;28;20446;-73
2022/01/23 11:19:46;;;;;;;1999.90;999.90;;;7.40;99.90;;;;;;5053777;28;20422;-73
2022/01/23 11:22:18;;;;;;;1999.90;999.90;;;7.50;99.90;;;;;;5053476;28;21111;-73
2022/01/23 11:24:48;;;;;;;1999.90;999.90;;;7.50;99.90;;;;;;5053921;28;20446;-72
2022/01/23 11:27:16;;;;;;;1999.90;999.90;;;7.40;99.90;;;;;;5053524;28;20559;-73
2022/01/23 11:29:57;;;;;;;1999.90;999.90;;;7.40;99.90;;;;;;5053325;28;20508;-72
2022/01/23 11:32:28;;;;;;;1999.90;999.90;;;7.40;99.90;;;;;;5053385;28;20901;-72
2022/01/23 11:35:04;;;;;;;1999.90;999.90;;;7.40;99.90;;;;;;5053385;28;20457;-73
2022/01/23 11:37:31;;;;;;;1999.90;999.90;;;7.40;99.90;;;;;;5053178;28;21220;-73
2022/01/23 11:40:03;;;;;;;1999.90;999.90;;;7.40;99.90;;;;;;5053570;28;20446;-73
2022/01/23 11:51:03;;;;;;;1999.90;999.90;;;7.20;99.90;;;;;;5052290;28;20438;-73
2022/01/23 11:56:39;;;;;;;1999.90;999.90;;;7.20;99.90;;;;;;5030507;28;20469;-73
2022/01/23 11:59:25;;;;;;;1999.90;999.90;;;7.30;99.90;;;;;;5048550;28;20451;-72
2022/01/23 12:02:20;;;;;;;1999.90;999.90;;;7.30;99.90;;;;;;5052981;28;20526;-73
2022/01/23 12:05:20;;;;;;;1999.90;999.90;;;7.30;99.90;;;;;;5052479;28;20454;-72
2022/01/23 12:08:28;;;;;;;1999.90;999.90;;;7.20;99.90;;;;;;5052712;28;20588;-73
2022/01/23 12:17:39;;;;;;;1999.90;999.90;;;7.10;99.90;;;;;;5052774;28;20911;-72
2022/01/23 12:20:07;;;;;;;1999.90;999.90;;;7.20;99.90;;;;;;5052438;28;20438;-73
2022/01/23 12:22:41;;;;;;;1999.90;999.90;;;7.20;99.90;;;;;;5052393;28;20446;-73
2022/01/23 12:25:17;;;;;;;1999.90;999.90;;;7.20;99.90;;;;;;5051873;28;20592;-72
2022/01/23 12:27:44;;;;;;;1999.90;999.90;;;7.20;99.90;;;;;;5038982;28;20469;-72
2022/01/23 12:30:31;;;;;;;1999.90;999.90;;;7.10;99.90;;;;;;5051557;28;20874;-73
2022/01/23 12:33:30;;;;;;;1999.90;999.90;;;7.10;99.90;;;;;;5052538;28;20439;-72
2022/01/23 12:36:01;;;;;;;1999.90;999.90;;;7.10;99.90;;;;;;5051625;28;20498;-72
2022/01/23 12:38:32;;;;;;;1999.90;999.90;;;7.10;99.90;;;;;;5051932;28;20831;-74
2022/01/23 12:41:22;;;;;;;1999.90;999.90;;;7.10;99.90;;;;;;5050346;28;20873;-74
2022/01/23 12:43:50;;;;;;;1999.90;999.90;;;7.00;99.90;;;;;;5052252;28;20541;-72
2022/01/23 12:46:26;;;;;;;1999.90;999.90;;;7.10;99.90;;;;;;5052728;28;20548;-73
2022/01/23 12:48:53;;;;;;;1999.90;999.90;;;7.10;99.90;;;;;;5051611;28;20508;-71
2022/01/23 12:51:39;;;;;;;1999.90;999.90;;;7.10;99.90;;;;;;5051444;28;20958;-72
2022/01/23 12:54:31;;;;;;;1999.90;999.90;;;7.10;99.90;;;;;;5052330;28;20514;-72
2022/01/23 12:57:09;;;;;;;1999.90;999.90;;;7.00;99.90;;;;;;5051677;28;20476;-72
2022/01/23 12:59:37;;;;;;;1999.90;999.90;;;7.00;99.90;;;;;;5051020;28;20857;-72
2022/01/23 13:02:11;;;;;;;1999.90;999.90;;;7.00;99.90;;;;;;5063186;28;20461;-72
2022/01/23 13:04:41;;;;;;;1999.90;999.90;;;7.00;99.90;;;;;;5067432;28;20442;-72
2022/01/23 13:07:27;;;;;;;1999.90;999.90;;;6.90;99.90;;;;;;5051582;28;20486;-72
2022/01/23 13:10:03;;;;;;;1999.90;999.90;;;6.90;99.90;;;;;;5050583;28;20445;-72
2022/01/23 13:12:48;;;;;;;1999.90;999.90;;;7.00;99.90;;;;;;5052119;28;20533;-72
2022/01/23 13:15:37;;;;;;;1999.90;999.90;;;7.00;99.90;;;;;;5050564;28;20449;-72
2022/01/23 13:18:15;;;;;;;1999.90;999.90;;;7.00;99.90;;;;;;5050683;28;20537;-72
2022/01/23 13:26:53;;;;;;;1999.90;999.90;;;7.00;99.90;;;;;;5044989;28;20501;-71
2022/01/23 13:32:24;;;;;;;1999.90;999.90;;;6.90;99.90;;;;;;5050677;28;20445;-73
2022/01/23 13:34:58;;;;;;;1999.90;999.90;;;6.90;99.90;;;;;;5050847;28;20450;-72
2022/01/23 13:37:27;;;;;;;1999.90;999.90;;;6.90;99.90;;;;;;5035011;28;20557;-72
2022/01/23 13:39:59;;;;;;;1999.90;999.90;;;6.80;99.90;;;;;;5050638;28;20450;-74
2022/01/23 13:42:45;;;;;;;1999.90;999.90;;;6.70;99.90;;;;;;5051170;28;20439;-73
2022/01/23 13:48:22;;;;;;;1999.90;999.90;;;6.70;99.90;;;;;;5050528;28;20434;-72
2022/01/23 13:53:51;;;;;;;1999.90;999.90;;;6.80;99.90;;;;;;5051599;28;20445;-73
2022/01/23 13:59:10;;;;;;;1999.90;999.90;;;6.80;99.90;;;;;;5051389;28;20410;-71
2022/01/23 14:01:50;;;;;;;1999.90;999.90;;;6.80;99.90;;;;;;5050767;28;20453;-73
2022/01/23 14:04:17;;;;;;;1999.90;999.90;;;7.10;99.90;;;;;;5051600;28;20827;-73
2022/01/23 14:06:46;;;;;;;1999.90;999.90;;;6.80;99.90;;;;;;5050995;28;20493;-74
2022/01/23 14:09:14;;;;;;;1999.90;999.90;;;6.90;99.90;;;;;;5051125;28;20524;-73
2022/01/23 14:11:41;;;;;;;1999.90;999.90;;;6.80;99.90;;;;;;5052348;28;20540;-73
2022/01/23 14:14:13;;;;;;;1999.90;999.90;;;6.80;99.90;;;;;;5055640;28;20438;-72
2022/01/23 14:16:40;;;;;;;1999.90;999.90;;;6.90;99.90;;;;;;5055490;28;20483;-72
2022/01/23 14:19:18;;;;;;;1999.90;999.90;;;6.90;99.90;;;;;;5055140;28;20442;-72
2022/01/23 14:21:49;;;;;;;1999.90;999.90;;;7.00;99.90;;;;;;5054782;28;20540;-73
2022/01/23 14:24:27;;;;;;;1999.90;999.90;;;7.00;99.90;;;;;;5055073;28;20442;-74
2022/01/23 14:27:04;;;;;;;1999.90;999.90;;;7.00;99.90;;;;;;5054904;28;20922;-73
2022/01/23 14:29:34;;;;;;;1999.90;999.90;;;7.00;99.90;;;;;;5055033;28;20836;-73
2022/01/23 14:32:06;;;;;;;1999.90;999.90;;;7.00;99.90;;;;;;5054597;28;21012;-73
2022/01/23 14:34:33;;;;;;;1999.90;999.90;;;7.00;99.90;;;;;;5054990;28;20453;-71
2022/01/23 14:37:06;;;;;;;1999.90;999.90;;;7.00;99.90;;;;;;5054565;28;20466;-73
2022/01/23 14:39:32;;;;;;;1999.90;999.90;;;7.00;99.90;;;;;;5052190;28;20466;-74
2022/01/23 14:42:12;;;;;;;1999.90;999.90;;;7.00;99.90;;;;;;5052433;28;20531;-73
2022/01/23 14:44:38;;;;;;;1999.90;999.90;;;6.90;99.90;;;;;;5052964;28;20488;-72
2022/01/23 14:47:06;;;;;;;1999.90;999.90;;;6.90;99.90;;;;;;5052362;28;20563;-74
2022/01/23 14:49:33;;;;;;;1999.90;999.90;;;6.90;99.90;;;;;;5051919;28;20933;-73
2022/01/23 14:52:02;;;;;;;1999.90;999.90;;;6.90;99.90;;;;;;5051873;28;20453;-74
2022/01/23 14:54:32;;;;;;;1999.90;999.90;;;7.00;99.90;;;;;;5052518;28;20461;-70
2022/01/23 14:57:00;;;;;;;1999.90;999.90;;;7.00;99.90;;;;;;5051646;28;20557;-73
2022/01/23 14:59:26;;;;;;;1999.90;999.90;;;6.90;99.90;;;;;;5051193;28;20462;-73
2022/01/23 15:01:55;;;;;;;1999.90;999.90;;;6.90;99.90;;;;;;5052020;28;20454;-73
2022/01/23 15:04:23;;;;;;;1999.90;999.90;;;6.90;99.90;;;;;;5051828;28;20446;-73
2022/01/23 15:06:52;;;;;;;1999.90;999.90;;;6.90;99.90;;;;;;5051324;28;20512;-73
2022/01/23 15:09:22;;;;;;;1999.90;999.90;;;6.90;99.90;;;;;;5050603;28;20478;-75